sensor_id;sensor_type;location;lat;lon;timestamp;temperature;humidity
3001;DHT22;1510;51.072;6.678;2023-06-05T00:00:07;11.30;71.90
3001;DHT22;1510;51.072;6.678;2023-06-05T00:02:36;11.30;71.60
3001;DHT22;1510;51.072;6.678;2023-06-05T00:05:03;11.20;70.20
3001;DHT22;1510;51.072;6.678;2023-06-05T00:07:34;11.30;70.30
3001;DHT22;1510;51.072;6.678;2023-06-05T00:10:04;11.30;69.70
3001;DHT22;1510;51.072;6.678;2023-06-05T00:12:30;11.30;70.20
3001;DHT22;1510;51.072;6.678;2023-06-05T00:14:57;11.30;70.20
3001;DHT22;1510;51.072;6.678;2023-06-05T00:17:24;11.30;70.20
3001;DHT22;1510;51.072;6.678;2023-06-05T00:19:52;11.40;70.30
3001;DHT22;1510;51.072;6.678;2023-06-05T00:22:19;11.30;70.20
3001;DHT22;1510;51.072;6.678;2023-06-05T00:24:46;11.20;70.40
3001;DHT22;1510;51.072;6.678;2023-06-05T00:27:12;11.20;72.70
3001;DHT22;1510;51.072;6.678;2023-06-05T00:29:39;11.20;73.20
3001;DHT22;1510;51.072;6.678;2023-06-05T00:32:06;11.20;73.80
3001;DHT22;1510;51.072;6.678;2023-06-05T00:34:33;11.10;75.00
3001;DHT22;1510;51.072;6.678;2023-06-05T00:37:01;11.10;75.80
3001;DHT22;1510;51.072;6.678;2023-06-05T00:39:28;11.10;78.00
3001;DHT22;1510;51.072;6.678;2023-06-05T00:41:55;11.00;77.90
3001;DHT22;1510;51.072;6.678;2023-06-05T00:44:21;11.00;80.30
3001;DHT22;1510;51.072;6.678;2023-06-05T00:46:49;10.90;82.80
3001;DHT22;1510;51.072;6.678;2023-06-05T00:49:17;10.80;85.50
3001;DHT22;1510;51.072;6.678;2023-06-05T00:51:45;10.80;89.90
3001;DHT22;1510;51.072;6.678;2023-06-05T00:54:14;10.80;91.30
3001;DHT22;1510;51.072;6.678;2023-06-05T00:56:41;10.70;91.30
3001;DHT22;1510;51.072;6.678;2023-06-05T00:59:08;10.70;93.40
3001;DHT22;1510;51.072;6.678;2023-06-05T01:01:35;10.60;94.60
3001;DHT22;1510;51.072;6.678;2023-06-05T01:04:04;10.60;95.50
3001;DHT22;1510;51.072;6.678;2023-06-05T01:06:31;10.60;97.80
3001;DHT22;1510;51.072;6.678;2023-06-05T01:08:59;10.50;97.80
3001;DHT22;1510;51.072;6.678;2023-06-05T01:11:34;10.50;99.30
3001;DHT22;1510;51.072;6.678;2023-06-05T01:14:11;10.40;99.20
3001;DHT22;1510;51.072;6.678;2023-06-05T01:16:42;10.30;99.90
3001;DHT22;1510;51.072;6.678;2023-06-05T01:19:13;10.30;99.90
3001;DHT22;1510;51.072;6.678;2023-06-05T01:21:40;10.30;99.90
3001;DHT22;1510;51.072;6.678;2023-06-05T01:24:08;10.20;99.90
3001;DHT22;1510;51.072;6.678;2023-06-05T01:26:45;10.20;99.90
3001;DHT22;1510;51.072;6.678;2023-06-05T01:29:21;10.20;99.90
3001;DHT22;1510;51.072;6.678;2023-06-05T01:31:51;10.10;99.90
3001;DHT22;1510;51.072;6.678;2023-06-05T01:34:22;10.10;99.90
3001;DHT22;1510;51.072;6.678;2023-06-05T01:36:52;10.10;99.90
3001;DHT22;1510;51.072;6.678;2023-06-05T01:39:21;10.00;99.90
3001;DHT22;1510;51.072;6.678;2023-06-05T01:41:54;9.90;99.90
3001;DHT22;1510;51.072;6.678;2023-06-05T01:44:21;9.90;99.90
3001;DHT22;1510;51.072;6.678;2023-06-05T01:46:49;10.00;99.90
3001;DHT22;1510;51.072;6.678;2023-06-05T01:49:16;10.00;99.90
3001;DHT22;1510;51.072;6.678;2023-06-05T01:51:43;10.00;99.90
3001;DHT22;1510;51.072;6.678;2023-06-05T01:54:10;10.00;99.90
3001;DHT22;1510;51.072;6.678;2023-06-05T01:56:38;9.90;99.90
3001;DHT22;1510;51.072;6.678;2023-06-05T01:59:05;9.90;99.90
3001;DHT22;1510;51.072;6.678;2023-06-05T02:01:33;9.90;99.90
3001;DHT22;1510;51.072;6.678;2023-06-05T02:04:01;9.90;99.90
3001;DHT22;1510;51.072;6.678;2023-06-05T02:06:32;9.80;99.90
3001;DHT22;1510;51.072;6.678;2023-06-05T02:09:07;9.70;99.90
3001;DHT22;1510;51.072;6.678;2023-06-05T02:11:34;9.70;99.90
3001;DHT22;1510;51.072;6.678;2023-06-05T02:14:03;9.70;99.90
3001;DHT22;1510;51.072;6.678;2023-06-05T02:16:30;9.60;99.90
3001;DHT22;1510;51.072;6.678;2023-06-05T02:18:57;9.60;99.90
3001;DHT22;1510;51.072;6.678;2023-06-05T02:21:29;9.70;99.90
3001;DHT22;1510;51.072;6.678;2023-06-05T02:23:58;9.70;99.90
3001;DHT22;1510;51.072;6.678;2023-06-05T02:26:25;9.70;99.90
3001;DHT22;1510;51.072;6.678;2023-06-05T02:28:52;9.60;99.90
3001;DHT22;1510;51.072;6.678;2023-06-05T02:31:21;9.60;99.90
3001;DHT22;1510;51.072;6.678;2023-06-05T02:33:50;9.50;99.90
3001;DHT22;1510;51.072;6.678;2023-06-05T02:36:18;9.50;99.90
3001;DHT22;1510;51.072;6.678;2023-06-05T02:38:45;9.50;99.90
3001;DHT22;1510;51.072;6.678;2023-06-05T02:41:14;9.60;99.90
3001;DHT22;1510;51.072;6.678;2023-06-05T02:43:40;9.60;99.90
3001;DHT22;1510;51.072;6.678;2023-06-05T02:46:07;9.50;99.90
3001;DHT22;1510;51.072;6.678;2023-06-05T02:48:35;9.40;99.90
3001;DHT22;1510;51.072;6.678;2023-06-05T02:51:03;9.40;99.90
3001;DHT22;1510;51.072;6.678;2023-06-05T02:53:31;9.30;99.90
3001;DHT22;1510;51.072;6.678;2023-06-05T02:55:58;9.30;99.90
3001;DHT22;1510;51.072;6.678;2023-06-05T02:58:27;9.30;99.90
3001;DHT22;1510;51.072;6.678;2023-06-05T03:00:54;9.40;99.90
3001;DHT22;1510;51.072;6.678;2023-06-05T03:03:21;9.40;99.90
3001;DHT22;1510;51.072;6.678;2023-06-05T03:05:52;9.40;99.90
3001;DHT22;1510;51.072;6.678;2023-06-05T03:08:19;9.30;99.90
3001;DHT22;1510;51.072;6.678;2023-06-05T03:10:46;9.30;99.90
3001;DHT22;1510;51.072;6.678;2023-06-05T03:13:13;9.30;99.90
3001;DHT22;1510;51.072;6.678;2023-06-05T03:15:40;9.40;99.90
3001;DHT22;1510;51.072;6.678;2023-06-05T03:18:07;9.40;99.90
3001;DHT22;1510;51.072;6.678;2023-06-05T03:20:34;9.30;99.90
3001;DHT22;1510;51.072;6.678;2023-06-05T03:23:03;9.30;99.90
3001;DHT22;1510;51.072;6.678;2023-06-05T03:25:29;9.20;99.90
3001;DHT22;1510;51.072;6.678;2023-06-05T03:27:56;9.20;99.90
3001;DHT22;1510;51.072;6.678;2023-06-05T03:30:23;9.20;99.90
3001;DHT22;1510;51.072;6.678;2023-06-05T03:32:50;9.30;99.90
3001;DHT22;1510;51.072;6.678;2023-06-05T03:35:17;9.20;99.90
3001;DHT22;1510;51.072;6.678;2023-06-05T03:37:44;9.20;99.90
3001;DHT22;1510;51.072;6.678;2023-06-05T03:40:12;9.20;99.90
3001;DHT22;1510;51.072;6.678;2023-06-05T03:42:39;9.20;99.90
3001;DHT22;1510;51.072;6.678;2023-06-05T03:45:06;9.20;99.90
3001;DHT22;1510;51.072;6.678;2023-06-05T03:47:34;9.20;99.90
3001;DHT22;1510;51.072;6.678;2023-06-05T03:50:01;9.20;99.90
3001;DHT22;1510;51.072;6.678;2023-06-05T03:52:29;9.20;99.90
3001;DHT22;1510;51.072;6.678;2023-06-05T03:54:55;9.20;99.90
3001;DHT22;1510;51.072;6.678;2023-06-05T03:57:24;9.20;99.90
3001;DHT22;1510;51.072;6.678;2023-06-05T03:59:51;9.20;99.90
3001;DHT22;1510;51.072;6.678;2023-06-05T04:02:18;9.20;99.90
3001;DHT22;1510;51.072;6.678;2023-06-05T04:04:44;9.20;99.90
3001;DHT22;1510;51.072;6.678;2023-06-05T04:07:11;9.30;99.90
3001;DHT22;1510;51.072;6.678;2023-06-05T04:09:38;9.30;99.90
3001;DHT22;1510;51.072;6.678;2023-06-05T04:12:05;9.30;99.90
3001;DHT22;1510;51.072;6.678;2023-06-05T04:14:33;9.40;99.90
3001;DHT22;1510;51.072;6.678;2023-06-05T04:17:01;9.50;99.90
3001;DHT22;1510;51.072;6.678;2023-06-05T04:19:28;9.60;99.90
3001;DHT22;1510;51.072;6.678;2023-06-05T04:21:55;9.70;99.90
3001;DHT22;1510;51.072;6.678;2023-06-05T04:24:22;9.70;99.90
3001;DHT22;1510;51.072;6.678;2023-06-05T04:26:51;9.80;99.90
3001;DHT22;1510;51.072;6.678;2023-06-05T04:29:18;9.90;99.90
3001;DHT22;1510;51.072;6.678;2023-06-05T04:31:47;10.10;99.90
3001;DHT22;1510;51.072;6.678;2023-06-05T04:34:14;10.10;99.90
3001;DHT22;1510;51.072;6.678;2023-06-05T04:36:44;10.20;99.90
3001;DHT22;1510;51.072;6.678;2023-06-05T04:39:12;10.20;99.90
3001;DHT22;1510;51.072;6.678;2023-06-05T04:41:40;10.20;99.90
3001;DHT22;1510;51.072;6.678;2023-06-05T04:44:11;10.30;99.90
3001;DHT22;1510;51.072;6.678;2023-06-05T04:46:38;10.40;99.90
3001;DHT22;1510;51.072;6.678;2023-06-05T04:49:07;10.50;99.90
3001;DHT22;1510;51.072;6.678;2023-06-05T04:51:34;10.60;99.90
3001;DHT22;1510;51.072;6.678;2023-06-05T04:54:02;10.70;99.90
3001;DHT22;1510;51.072;6.678;2023-06-05T04:56:29;10.80;99.90
3001;DHT22;1510;51.072;6.678;2023-06-05T04:58:57;10.90;99.90
3001;DHT22;1510;51.072;6.678;2023-06-05T05:01:24;11.00;99.90
3001;DHT22;1510;51.072;6.678;2023-06-05T05:03:53;11.20;99.90
3001;DHT22;1510;51.072;6.678;2023-06-05T05:06:21;11.40;99.90
3001;DHT22;1510;51.072;6.678;2023-06-05T05:08:48;11.50;99.90
3001;DHT22;1510;51.072;6.678;2023-06-05T05:11:15;11.70;99.90
3001;DHT22;1510;51.072;6.678;2023-06-05T05:13:42;11.80;99.90
3001;DHT22;1510;51.072;6.678;2023-06-05T05:16:10;11.90;99.90
3001;DHT22;1510;51.072;6.678;2023-06-05T05:18:39;12.20;99.90
3001;DHT22;1510;51.072;6.678;2023-06-05T05:21:06;12.50;99.90
3001;DHT22;1510;51.072;6.678;2023-06-05T05:23:34;12.90;99.90
3001;DHT22;1510;51.072;6.678;2023-06-05T05:26:02;13.30;99.90
3001;DHT22;1510;51.072;6.678;2023-06-05T05:28:29;13.60;99.90
3001;DHT22;1510;51.072;6.678;2023-06-05T05:30:56;13.90;99.90
3001;DHT22;1510;51.072;6.678;2023-06-05T05:33:23;14.20;99.90
3001;DHT22;1510;51.072;6.678;2023-06-05T05:35:50;14.40;99.90
3001;DHT22;1510;51.072;6.678;2023-06-05T05:38:16;15.00;99.90
3001;DHT22;1510;51.072;6.678;2023-06-05T05:40:45;15.00;99.90
3001;DHT22;1510;51.072;6.678;2023-06-05T05:43:11;15.30;99.90
3001;DHT22;1510;51.072;6.678;2023-06-05T05:45:38;15.20;99.90
3001;DHT22;1510;51.072;6.678;2023-06-05T05:48:07;15.50;99.90
3001;DHT22;1510;51.072;6.678;2023-06-05T05:50:34;15.60;98.30
3001;DHT22;1510;51.072;6.678;2023-06-05T05:53:02;15.90;96.90
3001;DHT22;1510;51.072;6.678;2023-06-05T05:55:29;16.00;96.80
3001;DHT22;1510;51.072;6.678;2023-06-05T05:57:57;16.10;94.40
3001;DHT22;1510;51.072;6.678;2023-06-05T06:00:24;15.90;94.00
3001;DHT22;1510;51.072;6.678;2023-06-05T06:02:51;16.00;93.80
3001;DHT22;1510;51.072;6.678;2023-06-05T06:05:19;16.20;93.50
3001;DHT22;1510;51.072;6.678;2023-06-05T06:07:46;16.30;93.60
3001;DHT22;1510;51.072;6.678;2023-06-05T06:10:13;16.50;92.80
3001;DHT22;1510;51.072;6.678;2023-06-05T06:12:40;16.50;91.90
3001;DHT22;1510;51.072;6.678;2023-06-05T06:15:09;16.80;91.60
3001;DHT22;1510;51.072;6.678;2023-06-05T06:17:36;16.90;90.40
3001;DHT22;1510;51.072;6.678;2023-06-05T06:20:03;17.00;89.60
3001;DHT22;1510;51.072;6.678;2023-06-05T06:22:31;17.10;85.90
3001;DHT22;1510;51.072;6.678;2023-06-05T06:24:57;17.30;85.60
3001;DHT22;1510;51.072;6.678;2023-06-05T06:27:25;17.80;84.10
3001;DHT22;1510;51.072;6.678;2023-06-05T06:29:52;17.80;76.20
3001;DHT22;1510;51.072;6.678;2023-06-05T06:32:20;17.70;77.20
3001;DHT22;1510;51.072;6.678;2023-06-05T06:34:48;17.90;78.70
3001;DHT22;1510;51.072;6.678;2023-06-05T06:37:16;17.80;76.20
3001;DHT22;1510;51.072;6.678;2023-06-05T06:39:43;18.20;74.40
3001;DHT22;1510;51.072;6.678;2023-06-05T06:42:11;18.40;75.70
3001;DHT22;1510;51.072;6.678;2023-06-05T06:44:38;18.50;68.70
3001;DHT22;1510;51.072;6.678;2023-06-05T06:47:06;18.30;68.60
3001;DHT22;1510;51.072;6.678;2023-06-05T06:49:35;18.60;68.80
3001;DHT22;1510;51.072;6.678;2023-06-05T06:52:02;19.20;64.00
3001;DHT22;1510;51.072;6.678;2023-06-05T06:54:29;19.00;60.90
3001;DHT22;1510;51.072;6.678;2023-06-05T06:56:56;19.00;63.30
3001;DHT22;1510;51.072;6.678;2023-06-05T06:59:23;18.90;62.10
3001;DHT22;1510;51.072;6.678;2023-06-05T07:02:08;19.20;61.20
3001;DHT22;1510;51.072;6.678;2023-06-05T07:04:38;19.40;61.30
3001;DHT22;1510;51.072;6.678;2023-06-05T07:07:08;19.10;57.00
3001;DHT22;1510;51.072;6.678;2023-06-05T07:09:35;19.20;58.10
3001;DHT22;1510;51.072;6.678;2023-06-05T07:12:01;19.20;54.90
3001;DHT22;1510;51.072;6.678;2023-06-05T07:14:31;19.20;56.40
3001;DHT22;1510;51.072;6.678;2023-06-05T07:16:58;19.10;58.40
3001;DHT22;1510;51.072;6.678;2023-06-05T07:19:26;19.60;59.60
3001;DHT22;1510;51.072;6.678;2023-06-05T07:21:55;19.50;57.20
3001;DHT22;1510;51.072;6.678;2023-06-05T07:24:23;19.30;52.60
3001;DHT22;1510;51.072;6.678;2023-06-05T07:26:51;19.60;53.90
3001;DHT22;1510;51.072;6.678;2023-06-05T07:29:18;19.80;57.40
3001;DHT22;1510;51.072;6.678;2023-06-05T07:31:47;19.80;53.00
3001;DHT22;1510;51.072;6.678;2023-06-05T07:34:13;19.90;53.10
3001;DHT22;1510;51.072;6.678;2023-06-05T07:36:41;20.10;48.00
3001;DHT22;1510;51.072;6.678;2023-06-05T07:39:09;20.40;51.60
3001;DHT22;1510;51.072;6.678;2023-06-05T07:41:37;20.50;44.90
3001;DHT22;1510;51.072;6.678;2023-06-05T07:44:05;20.50;44.90
3001;DHT22;1510;51.072;6.678;2023-06-05T07:46:32;20.40;47.80
3001;DHT22;1510;51.072;6.678;2023-06-05T07:48:58;20.60;45.10
3001;DHT22;1510;51.072;6.678;2023-06-05T07:51:25;20.80;41.30
3001;DHT22;1510;51.072;6.678;2023-06-05T07:53:52;20.80;42.00
3001;DHT22;1510;51.072;6.678;2023-06-05T07:56:20;20.90;42.50
3001;DHT22;1510;51.072;6.678;2023-06-05T07:58:49;20.80;39.30
3001;DHT22;1510;51.072;6.678;2023-06-05T08:01:17;20.90;36.20
3001;DHT22;1510;51.072;6.678;2023-06-05T08:03:46;21.30;39.30
3001;DHT22;1510;51.072;6.678;2023-06-05T08:06:13;21.20;36.40
3001;DHT22;1510;51.072;6.678;2023-06-05T08:08:40;21.70;36.90
3001;DHT22;1510;51.072;6.678;2023-06-05T08:11:07;21.60;36.80
3001;DHT22;1510;51.072;6.678;2023-06-05T08:13:36;22.00;37.70
3001;DHT22;1510;51.072;6.678;2023-06-05T08:16:03;22.20;35.20
3001;DHT22;1510;51.072;6.678;2023-06-05T08:18:30;22.40;30.30
3001;DHT22;1510;51.072;6.678;2023-06-05T08:20:57;22.40;28.80
3001;DHT22;1510;51.072;6.678;2023-06-05T08:23:24;22.30;28.70
3001;DHT22;1510;51.072;6.678;2023-06-05T08:25:52;22.10;29.00
3001;DHT22;1510;51.072;6.678;2023-06-05T08:28:18;22.00;30.70
3001;DHT22;1510;51.072;6.678;2023-06-05T08:30:46;22.10;35.60
3001;DHT22;1510;51.072;6.678;2023-06-05T08:33:13;22.40;28.70
3001;DHT22;1510;51.072;6.678;2023-06-05T08:35:41;22.20;34.20
3001;DHT22;1510;51.072;6.678;2023-06-05T08:38:08;22.50;32.10
3001;DHT22;1510;51.072;6.678;2023-06-05T08:40:35;22.20;28.70
3001;DHT22;1510;51.072;6.678;2023-06-05T08:43:03;22.30;33.10
3001;DHT22;1510;51.072;6.678;2023-06-05T08:45:31;22.70;29.00
3001;DHT22;1510;51.072;6.678;2023-06-05T08:48:01;23.00;29.20
3001;DHT22;1510;51.072;6.678;2023-06-05T08:50:28;22.80;26.30
3001;DHT22;1510;51.072;6.678;2023-06-05T08:52:58;22.60;25.30
3001;DHT22;1510;51.072;6.678;2023-06-05T08:55:26;22.70;29.40
3001;DHT22;1510;51.072;6.678;2023-06-05T08:57:53;23.10;23.40
3001;DHT22;1510;51.072;6.678;2023-06-05T09:00:21;23.20;25.10
3001;DHT22;1510;51.072;6.678;2023-06-05T09:02:48;23.70;22.40
3001;DHT22;1510;51.072;6.678;2023-06-05T09:05:17;23.40;20.00
3001;DHT22;1510;51.072;6.678;2023-06-05T09:07:44;23.40;19.40
3001;DHT22;1510;51.072;6.678;2023-06-05T09:10:24;23.40;22.20
3001;DHT22;1510;51.072;6.678;2023-06-05T09:12:55;23.70;22.40
3001;DHT22;1510;51.072;6.678;2023-06-05T09:15:24;24.10;18.80
3001;DHT22;1510;51.072;6.678;2023-06-05T09:18:07;23.90;19.40
3001;DHT22;1510;51.072;6.678;2023-06-05T09:20:37;23.80;21.80
3001;DHT22;1510;51.072;6.678;2023-06-05T09:23:05;23.80;18.00
3001;DHT22;1510;51.072;6.678;2023-06-05T09:25:48;23.60;22.30
3001;DHT22;1510;51.072;6.678;2023-06-05T09:28:16;23.70;17.20
3001;DHT22;1510;51.072;6.678;2023-06-05T09:30:54;23.80;14.90
3001;DHT22;1510;51.072;6.678;2023-06-05T09:33:21;24.50;10.40
3001;DHT22;1510;51.072;6.678;2023-06-05T09:36:01;24.20;13.50
3001;DHT22;1510;51.072;6.678;2023-06-05T09:38:29;24.60;11.50
3001;DHT22;1510;51.072;6.678;2023-06-05T09:41:01;24.80;11.00
3001;DHT22;1510;51.072;6.678;2023-06-05T09:43:28;24.90;11.70
3001;DHT22;1510;51.072;6.678;2023-06-05T09:45:55;25.10;15.80
3001;DHT22;1510;51.072;6.678;2023-06-05T09:48:22;25.10;11.30
3001;DHT22;1510;51.072;6.678;2023-06-05T09:54:14;25.20;8.20
3001;DHT22;1510;51.072;6.678;2023-06-05T09:56:46;24.90;4.70
3001;DHT22;1510;51.072;6.678;2023-06-05T09:59:19;25.10;6.80
3001;DHT22;1510;51.072;6.678;2023-06-05T10:01:49;25.30;12.60
3001;DHT22;1510;51.072;6.678;2023-06-05T10:04:20;26.10;1.00
3001;DHT22;1510;51.072;6.678;2023-06-05T10:06:47;25.70;1.00
3001;DHT22;1510;51.072;6.678;2023-06-05T10:09:16;25.90;1.00
3001;DHT22;1510;51.072;6.678;2023-06-05T10:11:48;26.00;1.00
3001;DHT22;1510;51.072;6.678;2023-06-05T10:14:15;25.40;1.00
3001;DHT22;1510;51.072;6.678;2023-06-05T10:16:42;26.20;1.00
3001;DHT22;1510;51.072;6.678;2023-06-05T10:19:09;26.30;1.00
3001;DHT22;1510;51.072;6.678;2023-06-05T10:21:36;26.10;1.00
3001;DHT22;1510;51.072;6.678;2023-06-05T10:24:06;26.00;1.00
3001;DHT22;1510;51.072;6.678;2023-06-05T10:32:49;26.40;1.00
3001;DHT22;1510;51.072;6.678;2023-06-05T10:35:31;26.10;1.00
3001;DHT22;1510;51.072;6.678;2023-06-05T10:38:10;25.90;1.00
3001;DHT22;1510;51.072;6.678;2023-06-05T10:40:42;26.20;1.00
3001;DHT22;1510;51.072;6.678;2023-06-05T10:43:29;26.00;1.00
3001;DHT22;1510;51.072;6.678;2023-06-05T10:45:59;25.80;1.00
3001;DHT22;1510;51.072;6.678;2023-06-05T10:51:34;26.10;1.00
3001;DHT22;1510;51.072;6.678;2023-06-05T10:54:03;26.60;1.00
3001;DHT22;1510;51.072;6.678;2023-06-05T10:56:52;26.10;1.00
3001;DHT22;1510;51.072;6.678;2023-06-05T10:59:21;27.50;1.00
3001;DHT22;1510;51.072;6.678;2023-06-05T11:02:23;27.30;1.00
3001;DHT22;1510;51.072;6.678;2023-06-05T11:05:09;28.00;1.00
3001;DHT22;1510;51.072;6.678;2023-06-05T11:07:40;28.10;1.00
3001;DHT22;1510;51.072;6.678;2023-06-05T11:10:11;28.10;1.00
3001;DHT22;1510;51.072;6.678;2023-06-05T11:12:57;28.50;1.00
3001;DHT22;1510;51.072;6.678;2023-06-05T11:15:39;27.80;1.00
3001;DHT22;1510;51.072;6.678;2023-06-05T11:18:32;28.40;1.00
3001;DHT22;1510;51.072;6.678;2023-06-05T11:21:01;28.70;1.00
3001;DHT22;1510;51.072;6.678;2023-06-05T11:23:28;28.30;1.00
3001;DHT22;1510;51.072;6.678;2023-06-05T11:25:57;29.40;1.00
3001;DHT22;1510;51.072;6.678;2023-06-05T11:28:40;29.80;1.00
3001;DHT22;1510;51.072;6.678;2023-06-05T11:31:07;29.50;1.00
3001;DHT22;1510;51.072;6.678;2023-06-05T11:33:35;29.00;1.00
3001;DHT22;1510;51.072;6.678;2023-06-05T11:36:05;28.30;1.00
3001;DHT22;1510;51.072;6.678;2023-06-05T11:38:32;27.80;1.00
3001;DHT22;1510;51.072;6.678;2023-06-05T11:41:00;28.10;1.00
3001;DHT22;1510;51.072;6.678;2023-06-05T11:43:32;28.40;1.00
3001;DHT22;1510;51.072;6.678;2023-06-05T11:45:59;28.10;1.00
3001;DHT22;1510;51.072;6.678;2023-06-05T11:48:26;28.90;1.00
3001;DHT22;1510;51.072;6.678;2023-06-05T11:50:56;28.00;1.00
3001;DHT22;1510;51.072;6.678;2023-06-05T11:53:24;28.10;1.00
3001;DHT22;1510;51.072;6.678;2023-06-05T11:55:52;28.90;1.00
3001;DHT22;1510;51.072;6.678;2023-06-05T11:58:33;29.00;1.00
3001;DHT22;1510;51.072;6.678;2023-06-05T12:01:06;29.40;1.00
3001;DHT22;1510;51.072;6.678;2023-06-05T12:03:33;30.00;1.00
3001;DHT22;1510;51.072;6.678;2023-06-05T12:06:03;30.20;1.00
3001;DHT22;1510;51.072;6.678;2023-06-05T12:08:31;30.60;1.00
3001;DHT22;1510;51.072;6.678;2023-06-05T12:10:59;31.10;1.00
3001;DHT22;1510;51.072;6.678;2023-06-05T12:13:47;30.70;1.00
3001;DHT22;1510;51.072;6.678;2023-06-05T12:16:14;30.40;1.00
3001;DHT22;1510;51.072;6.678;2023-06-05T12:18:42;30.10;1.00
3001;DHT22;1510;51.072;6.678;2023-06-05T12:21:21;29.60;1.00
3001;DHT22;1510;51.072;6.678;2023-06-05T12:23:48;28.60;1.00
3001;DHT22;1510;51.072;6.678;2023-06-05T12:26:15;28.40;1.00
3001;DHT22;1510;51.072;6.678;2023-06-05T12:28:43;28.70;1.00
3001;DHT22;1510;51.072;6.678;2023-06-05T12:31:32;29.90;1.00
3001;DHT22;1510;51.072;6.678;2023-06-05T12:34:00;30.20;1.00
3001;DHT22;1510;51.072;6.678;2023-06-05T12:36:28;30.50;1.00
3001;DHT22;1510;51.072;6.678;2023-06-05T12:38:55;30.80;1.00
3001;DHT22;1510;51.072;6.678;2023-06-05T12:41:22;31.20;1.00
3001;DHT22;1510;51.072;6.678;2023-06-05T12:43:58;30.80;1.00
3001;DHT22;1510;51.072;6.678;2023-06-05T12:46:25;30.50;1.00
3001;DHT22;1510;51.072;6.678;2023-06-05T12:48:52;29.50;1.00
3001;DHT22;1510;51.072;6.678;2023-06-05T12:51:19;29.60;1.00
3001;DHT22;1510;51.072;6.678;2023-06-05T12:53:47;29.50;1.00
3001;DHT22;1510;51.072;6.678;2023-06-05T12:56:14;29.90;1.00
3001;DHT22;1510;51.072;6.678;2023-06-05T12:58:41;29.30;1.00
3001;DHT22;1510;51.072;6.678;2023-06-05T13:01:08;28.50;1.00
3001;DHT22;1510;51.072;6.678;2023-06-05T13:03:36;28.30;1.00
3001;DHT22;1510;51.072;6.678;2023-06-05T13:06:03;29.70;1.00
3001;DHT22;1510;51.072;6.678;2023-06-05T13:08:30;30.60;1.00
3001;DHT22;1510;51.072;6.678;2023-06-05T13:10:59;31.20;1.00
3001;DHT22;1510;51.072;6.678;2023-06-05T13:13:26;31.70;1.00
3001;DHT22;1510;51.072;6.678;2023-06-05T13:15:54;31.80;1.00
3001;DHT22;1510;51.072;6.678;2023-06-05T13:18:21;31.10;1.00
3001;DHT22;1510;51.072;6.678;2023-06-05T13:20:48;30.40;1.00
3001;DHT22;1510;51.072;6.678;2023-06-05T13:23:14;30.50;1.00
3001;DHT22;1510;51.072;6.678;2023-06-05T13:25:41;30.10;1.00
3001;DHT22;1510;51.072;6.678;2023-06-05T13:28:09;29.50;1.00
3001;DHT22;1510;51.072;6.678;2023-06-05T13:30:36;29.20;1.00
3001;DHT22;1510;51.072;6.678;2023-06-05T13:33:03;29.50;1.00
3001;DHT22;1510;51.072;6.678;2023-06-05T13:35:30;29.10;1.00
3001;DHT22;1510;51.072;6.678;2023-06-05T13:37:56;29.00;1.00
3001;DHT22;1510;51.072;6.678;2023-06-05T13:40:23;28.60;1.00
3001;DHT22;1510;51.072;6.678;2023-06-05T13:42:52;28.90;1.00
3001;DHT22;1510;51.072;6.678;2023-06-05T13:45:20;29.50;1.00
3001;DHT22;1510;51.072;6.678;2023-06-05T13:47:47;29.90;1.00
3001;DHT22;1510;51.072;6.678;2023-06-05T13:50:14;30.80;1.00
3001;DHT22;1510;51.072;6.678;2023-06-05T13:52:41;30.50;1.00
3001;DHT22;1510;51.072;6.678;2023-06-05T13:55:08;30.00;1.00
3001;DHT22;1510;51.072;6.678;2023-06-05T13:57:34;30.50;1.00
3001;DHT22;1510;51.072;6.678;2023-06-05T14:00:02;30.90;1.00
3001;DHT22;1510;51.072;6.678;2023-06-05T14:02:30;30.60;1.00
3001;DHT22;1510;51.072;6.678;2023-06-05T14:04:57;29.80;1.00
3001;DHT22;1510;51.072;6.678;2023-06-05T14:07:24;29.10;1.00
3001;DHT22;1510;51.072;6.678;2023-06-05T14:09:51;29.40;1.00
3001;DHT22;1510;51.072;6.678;2023-06-05T14:12:18;29.00;1.00
3001;DHT22;1510;51.072;6.678;2023-06-05T14:14:45;29.70;1.00
3001;DHT22;1510;51.072;6.678;2023-06-05T14:17:11;29.50;1.00
3001;DHT22;1510;51.072;6.678;2023-06-05T14:19:39;29.30;1.00
3001;DHT22;1510;51.072;6.678;2023-06-05T14:22:06;29.80;1.00
3001;DHT22;1510;51.072;6.678;2023-06-05T14:24:33;29.80;1.00
3001;DHT22;1510;51.072;6.678;2023-06-05T14:27:00;30.60;1.00
3001;DHT22;1510;51.072;6.678;2023-06-05T14:29:27;31.80;1.00
3001;DHT22;1510;51.072;6.678;2023-06-05T14:31:54;31.70;1.00
3001;DHT22;1510;51.072;6.678;2023-06-05T14:34:20;30.60;1.00
3001;DHT22;1510;51.072;6.678;2023-06-05T14:36:48;30.90;1.00
3001;DHT22;1510;51.072;6.678;2023-06-05T14:39:17;30.10;1.00
3001;DHT22;1510;51.072;6.678;2023-06-05T14:41:45;30.10;1.00
3001;DHT22;1510;51.072;6.678;2023-06-05T14:44:12;29.50;1.00
3001;DHT22;1510;51.072;6.678;2023-06-05T14:46:38;29.40;1.00
3001;DHT22;1510;51.072;6.678;2023-06-05T14:49:05;29.50;1.00
3001;DHT22;1510;51.072;6.678;2023-06-05T14:51:32;28.80;1.00
3001;DHT22;1510;51.072;6.678;2023-06-05T14:54:00;28.50;1.00
3001;DHT22;1510;51.072;6.678;2023-06-05T14:56:27;29.00;1.00
3001;DHT22;1510;51.072;6.678;2023-06-05T14:58:54;28.70;1.00
3001;DHT22;1510;51.072;6.678;2023-06-05T15:01:21;28.70;1.00
3001;DHT22;1510;51.072;6.678;2023-06-05T15:03:47;29.60;1.00
3001;DHT22;1510;51.072;6.678;2023-06-05T15:06:14;30.60;1.00
3001;DHT22;1510;51.072;6.678;2023-06-05T15:08:41;31.30;1.00
3001;DHT22;1510;51.072;6.678;2023-06-05T15:11:09;30.90;1.00
3001;DHT22;1510;51.072;6.678;2023-06-05T15:13:36;30.60;1.00
3001;DHT22;1510;51.072;6.678;2023-06-05T15:16:03;30.30;1.00
3001;DHT22;1510;51.072;6.678;2023-06-05T15:18:30;30.10;1.00
3001;DHT22;1510;51.072;6.678;2023-06-05T15:20:57;29.20;1.00
3001;DHT22;1510;51.072;6.678;2023-06-05T15:23:23;30.30;1.00
3001;DHT22;1510;51.072;6.678;2023-06-05T15:25:50;30.70;1.00
3001;DHT22;1510;51.072;6.678;2023-06-05T15:28:18;31.10;1.00
3001;DHT22;1510;51.072;6.678;2023-06-05T15:30:45;31.00;1.00
3001;DHT22;1510;51.072;6.678;2023-06-05T15:33:13;31.00;1.00
3001;DHT22;1510;51.072;6.678;2023-06-05T15:35:41;30.40;1.00
3001;DHT22;1510;51.072;6.678;2023-06-05T15:38:09;30.40;1.00
3001;DHT22;1510;51.072;6.678;2023-06-05T15:40:36;30.60;1.00
3001;DHT22;1510;51.072;6.678;2023-06-05T15:43:04;30.50;1.00
3001;DHT22;1510;51.072;6.678;2023-06-05T15:45:33;29.60;1.00
3001;DHT22;1510;51.072;6.678;2023-06-05T15:48:00;29.80;1.00
3001;DHT22;1510;51.072;6.678;2023-06-05T15:50:27;30.10;1.00
3001;DHT22;1510;51.072;6.678;2023-06-05T15:52:54;30.60;1.00
3001;DHT22;1510;51.072;6.678;2023-06-05T15:55:21;30.70;1.00
3001;DHT22;1510;51.072;6.678;2023-06-05T15:57:48;31.10;1.00
3001;DHT22;1510;51.072;6.678;2023-06-05T16:00:16;31.00;1.00
3001;DHT22;1510;51.072;6.678;2023-06-05T16:02:44;31.20;1.00
3001;DHT22;1510;51.072;6.678;2023-06-05T16:05:11;31.30;1.00
3001;DHT22;1510;51.072;6.678;2023-06-05T16:07:38;31.40;1.00
3001;DHT22;1510;51.072;6.678;2023-06-05T16:10:06;31.10;1.00
3001;DHT22;1510;51.072;6.678;2023-06-05T16:12:33;30.80;1.00
3001;DHT22;1510;51.072;6.678;2023-06-05T16:15:00;31.20;1.00
3001;DHT22;1510;51.072;6.678;2023-06-05T16:17:26;30.80;1.00
3001;DHT22;1510;51.072;6.678;2023-06-05T16:19:56;31.30;1.00
3001;DHT22;1510;51.072;6.678;2023-06-05T16:22:23;31.00;1.00
3001;DHT22;1510;51.072;6.678;2023-06-05T16:24:50;30.70;1.00
3001;DHT22;1510;51.072;6.678;2023-06-05T16:27:17;30.70;1.00
3001;DHT22;1510;51.072;6.678;2023-06-05T16:29:45;30.40;1.00